Time;durP1;ratioP1;P1;durP2;ratioP2;P2;SDS_P1;SDS_P2;PMS_P1;PMS_P2;Temp;Humidity;BMP_temperature;BMP_pressure;BME280_temperature;BME280_humidity;BME280_pressure;Samples;Min_cycle;Max_cycle;Signal;HPM_P1;HPM_P2
2021/12/05 00:22:41;;;;;;;6.43;4.53;;;5.20;99.90;;;;;;2614636;39;20776;-77
2021/12/05 00:25:13;;;;;;;15.10;5.23;;;5.20;99.90;;;;;;2613548;54;20411;-75
2021/12/05 00:27:51;;;;;;;4.10;2.93;;;5.30;99.90;;;;;;2613202;39;20486;-75
2021/12/05 00:33:44;;;;;;;7.17;4.47;;;5.10;99.90;;;;;;2614895;39;20795;-75
2021/12/05 00:41:50;;;;;;;5.20;2.67;;;5.00;99.90;;;;;;2615452;39;20812;-74
2021/12/05 00:57:38;;;;;;;7.10;4.50;;;4.60;99.90;;;;;;2614162;39;20926;-76
2021/12/05 01:15:46;;;;;;;13.50;4.93;;;4.80;99.90;;;;;;2614995;54;20400;-76
2021/12/05 01:18:16;;;;;;;13.27;5.33;;;4.90;99.90;;;;;;2613817;54;20427;-76
2021/12/05 01:20:52;;;;;;;7.37;5.60;;;5.10;99.90;;;;;;2614860;47;20423;-76
2021/12/05 01:26:08;;;;;;;9.20;6.03;;;5.30;99.90;;;;;;2614387;47;20940;-76
2021/12/05 01:42:55;;;;;;;7.73;4.17;;;5.60;99.90;;;;;;2614179;54;20440;-74
2021/12/05 02:09:47;;;;;;;13.63;5.10;;;5.60;99.90;;;;;;2613582;47;20479;-75
2021/12/05 02:32:10;;;;;;;13.07;6.23;;;5.20;99.90;;;;;;2614465;39;20797;-75
2021/12/05 02:42:35;;;;;;;8.40;3.87;;;5.20;99.90;;;;;;2613597;47;20403;-75
2021/12/05 02:45:06;;;;;;;6.17;3.63;;;5.10;99.90;;;;;;2614102;47;20913;-74
2021/12/05 02:47:33;;;;;;;6.13;4.00;;;5.10;99.90;;;;;;2613188;47;20461;-75
2021/12/05 02:50:01;;;;;;;11.73;4.90;;;5.10;99.90;;;;;;2614826;54;20411;-75
2021/12/05 02:52:32;;;;;;;8.33;4.60;;;5.10;99.90;;;;;;2613473;48;20505;-75
2021/12/05 02:55:27;;;;;;;6.10;4.37;;;5.10;99.90;;;;;;2614147;47;20423;-74
2021/12/05 02:58:01;;;;;;;14.17;4.80;;;5.10;99.90;;;;;;2614362;47;20427;-77
2021/12/05 03:00:38;;;;;;;13.30;6.07;;;5.10;99.90;;;;;;2615839;39;20687;-75
2021/12/05 03:03:18;;;;;;;12.50;5.13;;;5.00;99.90;;;;;;2614214;47;20455;-75
2021/12/05 03:05:48;;;;;;;9.63;3.97;;;5.00;99.90;;;;;;2613958;47;20953;-75
2021/12/05 03:08:14;;;;;;;10.63;3.60;;;5.00;99.90;;;;;;2614958;47;20415;-75
2021/12/05 03:10:40;;;;;;;13.80;5.07;;;5.10;99.90;;;;;;2613806;54;20542;-75
2021/12/05 03:13:06;;;;;;;18.30;6.10;;;5.20;99.90;;;;;;2615102;39;20831;-75
2021/12/05 03:15:33;;;;;;;6.80;3.43;;;5.20;99.90;;;;;;2615289;47;20963;-76
2021/12/05 03:17:59;;;;;;;16.83;5.90;;;5.10;99.90;;;;;;2613270;51;20427;-75
2021/12/05 03:20:25;;;;;;;9.03;3.70;;;5.10;99.90;;;;;;2615474;47;20455;-75
2021/12/05 03:22:53;;;;;;;17.87;8.33;;;5.00;99.90;;;;;;2614198;47;20465;-75
2021/12/05 03:25:20;;;;;;;19.27;5.73;;;5.00;99.90;;;;;;2615104;39;20826;-75
2021/12/05 03:27:46;;;;;;;15.50;7.30;;;5.00;99.90;;;;;;2614513;47;20514;-76
2021/12/05 03:30:18;;;;;;;14.93;7.73;;;5.00;99.90;;;;;;2614959;54;20413;-75
2021/12/05 03:32:48;;;;;;;14.10;6.30;;;5.00;99.90;;;;;;2614457;47;20475;-75
2021/12/05 03:35:15;;;;;;;15.37;5.47;;;5.10;99.90;;;;;;2615142;47;20560;-76
2021/12/05 03:37:41;;;;;;;13.07;5.10;;;5.10;99.90;;;;;;2615433;54;20456;-77
2021/12/05 03:40:09;;;;;;;14.07;5.57;;;5.20;99.90;;;;;;2614136;47;20423;-77
2021/12/05 03:42:36;;;;;;;19.57;7.70;;;5.20;99.90;;;;;;2612049;31;20833;-74
2021/12/05 03:45:08;;;;;;;21.47;7.63;;;5.10;99.90;;;;;;2613915;39;20951;-73
2021/12/05 03:47:34;;;;;;;10.03;5.83;;;5.00;99.90;;;;;;2613772;54;20439;-75
2021/12/05 03:50:01;;;;;;;20.23;9.27;;;5.00;99.90;;;;;;2614592;39;20738;-74
2021/12/05 03:52:28;;;;;;;12.90;6.57;;;5.10;99.90;;;;;;2614121;54;20416;-74
2021/12/05 03:54:54;;;;;;;14.30;7.03;;;5.00;99.90;;;;;;2614754;46;20997;-76
2021/12/05 03:57:20;;;;;;;11.53;5.67;;;5.00;99.90;;;;;;2614728;47;20456;-74
2021/12/05 03:59:46;;;;;;;18.43;6.23;;;4.90;99.90;;;;;;2613741;54;20444;-74
2021/12/05 04:02:12;;;;;;;9.53;5.47;;;5.00;99.90;;;;;;2613924;47;20442;-75
2021/12/05 04:04:40;;;;;;;7.30;4.60;;;5.10;99.90;;;;;;2614438;39;20524;-76
2021/12/05 04:07:08;;;;;;;3.47;3.13;;;5.00;99.90;;;;;;2614890;47;21150;-74
2021/12/05 04:09:35;;;;;;;9.90;4.33;;;5.00;99.90;;;;;;2614388;51;21006;-75
2021/12/05 04:12:03;;;;;;;10.87;4.70;;;5.00;99.90;;;;;;2612326;47;20423;-75
2021/12/05 04:14:37;;;;;;;6.60;3.80;;;5.00;99.90;;;;;;2614702;39;20802;-74
2021/12/05 04:17:07;;;;;;;10.10;3.63;;;5.00;99.90;;;;;;2614403;46;21120;-75
2021/12/05 04:19:34;;;;;;;9.83;3.27;;;5.10;99.90;;;;;;2614419;46;20416;-76
2021/12/05 04:22:05;;;;;;;12.77;3.33;;;5.10;99.90;;;;;;2614699;54;20439;-76
2021/12/05 04:24:35;;;;;;;7.30;3.97;;;5.00;99.90;;;;;;2614916;47;20438;-76
2021/12/05 04:27:02;;;;;;;3.27;2.73;;;5.00;99.90;;;;;;2615548;54;20566;-76
2021/12/05 04:29:33;;;;;;;4.40;3.90;;;4.90;99.90;;;;;;2614032;47;20415;-75
2021/12/05 04:32:00;;;;;;;8.80;3.20;;;4.90;99.90;;;;;;2614850;47;20441;-75
2021/12/05 04:34:27;;;;;;;9.23;3.37;;;4.90;99.90;;;;;;2613662;46;20859;-77
2021/12/05 04:36:57;;;;;;;15.27;4.93;;;4.90;99.90;;;;;;2614092;51;20423;-77
2021/12/05 04:39:26;;;;;;;8.40;3.53;;;4.90;99.90;;;;;;2614382;54;20419;-75
2021/12/05 04:41:53;;;;;;;9.53;4.00;;;4.80;99.90;;;;;;2614052;47;20431;-76
2021/12/05 04:44:20;;;;;;;14.43;3.90;;;4.80;99.90;;;;;;2613782;39;20805;-76
2021/12/05 04:46:48;;;;;;;7.03;3.60;;;4.90;99.90;;;;;;2613984;54;20423;-77
2021/12/05 04:49:16;;;;;;;3.20;2.90;;;5.00;99.90;;;;;;2615007;39;20818;-75
2021/12/05 04:51:44;;;;;;;7.73;3.80;;;5.20;99.90;;;;;;2614279;47;20428;-76
2021/12/05 04:54:17;;;;;;;5.17;3.20;;;5.00;99.90;;;;;;2614495;54;20423;-75
2021/12/05 04:56:45;;;;;;;6.30;2.73;;;5.00;99.90;;;;;;2614967;39;20955;-76
2021/12/05 04:59:14;;;;;;;4.00;2.90;;;4.90;99.90;;;;;;2614413;51;20439;-76
2021/12/05 05:01:43;;;;;;;8.60;3.53;;;4.80;99.90;;;;;;2613988;47;20439;-76
2021/12/05 05:04:22;;;;;;;6.40;3.50;;;4.70;99.90;;;;;;2614906;54;20562;-75
2021/12/05 05:06:50;;;;;;;4.40;3.10;;;4.70;99.90;;;;;;2614603;54;20422;-75
2021/12/05 05:09:17;;;;;;;2.67;2.47;;;4.70;99.90;;;;;;2613292;54;20471;-75
2021/12/05 05:11:43;;;;;;;5.57;2.50;;;4.70;99.90;;;;;;2614763;54;21070;-76
2021/12/05 05:14:09;;;;;;;15.87;3.50;;;4.80;99.90;;;;;;2614962;54;20415;-77
2021/12/05 05:16:36;;;;;;;10.07;3.33;;;4.80;99.90;;;;;;2614699;47;20456;-75
2021/12/05 05:19:03;;;;;;;11.37;4.13;;;4.80;99.90;;;;;;2613823;54;20511;-76
2021/12/05 05:26:51;;;;;;;8.60;3.00;;;4.90;99.90;;;;;;2614696;54;20476;-77
2021/12/05 05:48:33;;;;;;;13.40;3.37;;;5.10;99.90;;;;;;2612844;47;20412;-75
2021/12/05 05:51:01;;;;;;;9.27;4.07;;;5.10;99.90;;;;;;2612318;54;20406;-76
2021/12/05 05:53:27;;;;;;;7.20;3.10;;;5.20;99.90;;;;;;2613227;54;20404;-75
2021/12/05 05:55:56;;;;;;;4.77;2.70;;;5.20;99.90;;;;;;2613989;54;20407;-76
2021/12/05 05:58:28;;;;;;;6.83;2.77;;;5.10;99.90;;;;;;2613483;54;20403;-75
2021/12/05 06:03:26;;;;;;;4.70;2.73;;;5.20;99.90;;;;;;2613500;39;20851;-77
2021/12/05 06:05:59;;;;;;;6.57;3.67;;;5.20;99.90;;;;;;2613884;47;20424;-76
2021/12/05 06:08:27;;;;;;;4.23;2.47;;;5.20;99.90;;;;;;2613108;54;20203;-74
2021/12/05 06:11:00;;;;;;;3.20;2.30;;;5.10;99.90;;;;;;2613792;54;20431;-76
2021/12/05 06:13:28;;;;;;;5.10;2.40;;;5.10;99.90;;;;;;2613506;54;20422;-75
2021/12/05 06:15:54;;;;;;;7.23;3.50;;;5.20;99.90;;;;;;2613893;47;20503;-75
2021/12/05 06:18:21;;;;;;;8.07;2.50;;;5.30;99.90;;;;;;2612887;54;20400;-75
2021/12/05 06:20:47;;;;;;;7.80;3.53;;;5.30;99.90;;;;;;2613460;54;20963;-76
2021/12/05 06:23:14;;;;;;;6.13;3.00;;;5.30;99.90;;;;;;2613899;54;20427;-75
2021/12/05 06:25:43;;;;;;;6.00;2.73;;;5.60;99.90;;;;;;2614538;54;20403;-75
2021/12/05 06:28:14;;;;;;;2.60;2.40;;;5.50;99.90;;;;;;2613316;47;20412;-74
2021/12/05 06:41:48;;;;;;;6.33;2.00;;;5.60;99.90;;;;;;2630706;36;20475;-76
2021/12/05 06:46:44;;;;;;;13.60;3.07;;;5.60;99.90;;;;;;2612834;47;20545;-76
2021/12/05 06:49:10;;;;;;;5.63;2.97;;;5.60;99.90;;;;;;2613693;54;20421;-78
2021/12/05 06:51:36;;;;;;;8.20;2.60;;;5.70;99.90;;;;;;2610501;54;20411;-77
2021/12/05 06:54:02;;;;;;;4.97;2.40;;;5.70;99.90;;;;;;2614702;54;20802;-76
2021/12/05 06:56:29;;;;;;;8.90;3.30;;;5.70;99.90;;;;;;2613334;54;21050;-76
2021/12/05 06:58:55;;;;;;;4.30;2.67;;;5.80;99.90;;;;;;2613150;39;20829;-76
2021/12/05 07:01:22;;;;;;;3.93;2.50;;;5.90;99.90;;;;;;2612598;47;20400;-75
2021/12/05 07:03:50;;;;;;;5.87;3.20;;;5.80;99.90;;;;;;2614556;47;20559;-76
2021/12/05 07:06:23;;;;;;;4.37;2.13;;;5.80;99.90;;;;;;2614368;54;20541;-76
2021/12/05 07:08:51;;;;;;;4.57;2.50;;;5.70;99.90;;;;;;2612859;47;20430;-76
2021/12/05 07:11:24;;;;;;;2.40;1.90;;;5.70;99.90;;;;;;2612266;54;20498;-76
2021/12/05 07:21:59;;;;;;;5.97;2.87;;;5.80;99.90;;;;;;2612262;47;20435;-77
2021/12/05 07:24:40;;;;;;;6.20;1.60;;;5.80;99.90;;;;;;2613583;54;20520;-76
2021/12/05 07:41:19;;;;;;;5.17;2.33;;;6.10;99.90;;;;;;2614060;47;20427;-77
2021/12/05 07:43:45;;;;;;;7.03;4.00;;;6.30;99.90;;;;;;2612256;54;20492;-77
2021/12/05 07:46:11;;;;;;;3.40;2.00;;;5.90;99.90;;;;;;2612204;39;21970;-76
2021/12/05 07:48:41;;;;;;;4.90;2.70;;;5.90;99.90;;;;;;2613144;46;20431;-77
2021/12/05 07:51:14;;;;;;;2.90;2.17;;;5.70;99.90;;;;;;2614272;47;20505;-74
2021/12/05 07:56:17;;;;;;;6.23;2.93;;;5.80;99.90;;;;;;2614873;39;20808;-75
2021/12/05 08:15:17;;;;;;;4.60;2.37;;;6.50;99.90;;;;;;2613813;54;20411;-76
2021/12/05 08:17:50;;;;;;;5.20;2.20;;;6.30;99.90;;;;;;2613672;54;20502;-76
2021/12/05 08:20:16;;;;;;;2.47;2.30;;;6.10;99.90;;;;;;2613725;54;20407;-75
2021/12/05 08:22:43;;;;;;;8.53;2.70;;;6.00;99.90;;;;;;2613446;49;20420;-75
2021/12/05 08:25:11;;;;;;;8.00;3.10;;;6.10;99.90;;;;;;2614207;54;20547;-76
2021/12/05 08:27:42;;;;;;;4.50;2.30;;;6.20;99.90;;;;;;2613713;39;21305;-77
2021/12/05 08:30:13;;;;;;;4.60;2.97;;;6.40;99.90;;;;;;2612093;47;20589;-76
2021/12/05 08:35:18;;;;;;;3.47;2.30;;;6.20;99.90;;;;;;2611705;39;20961;-77
2021/12/05 08:38:42;;;;;;;3.70;2.80;;;6.30;99.90;;;;;;2612152;54;20810;-76
2021/12/05 10:02:23;;;;;;;10.27;6.17;;;6.30;99.90;;;;;;2614613;54;20413;-77
2021/12/05 10:13:13;;;;;;;3.00;2.40;;;6.30;99.90;;;;;;2613801;47;21097;-75
2021/12/05 10:38:08;;;;;;;2.80;2.20;;;6.70;99.90;;;;;;2615120;39;20931;-76
2021/12/05 10:41:00;;;;;;;3.93;3.03;;;7.30;99.90;;;;;;2612266;52;20441;-76
2021/12/05 10:43:30;;;;;;;3.87;2.10;;;6.90;99.90;;;;;;2613887;54;20411;-76
2021/12/05 10:46:07;;;;;;;2.17;1.83;;;7.50;99.90;;;;;;2615116;54;20482;-76
2021/12/05 10:48:41;;;;;;;2.97;2.43;;;6.90;99.90;;;;;;2611496;54;20411;-76
2021/12/05 10:51:21;;;;;;;3.97;2.43;;;6.90;99.90;;;;;;2614328;54;20506;-75
2021/12/05 10:53:53;;;;;;;5.53;2.00;;;6.90;99.90;;;;;;2613803;47;20496;-77
2021/12/05 10:56:23;;;;;;;2.17;1.93;;;7.10;99.90;;;;;;2614350;54;20407;-76
2021/12/05 10:58:54;;;;;;;3.23;2.00;;;7.00;99.90;;;;;;2613685;47;20411;-78
2021/12/05 11:01:26;;;;;;;3.83;2.00;;;6.90;99.90;;;;;;2613660;54;20407;-77
2021/12/05 11:04:04;;;;;;;1.90;1.40;;;6.80;99.90;;;;;;2614244;39;20568;-76
2021/12/05 11:06:36;;;;;;;2.47;1.90;;;6.80;99.90;;;;;;2614041;54;20405;-75
2021/12/05 11:09:15;;;;;;;3.17;2.87;;;7.00;99.90;;;;;;2612323;54;20984;-75
2021/12/05 11:11:43;;;;;;;2.40;2.20;;;7.20;99.90;;;;;;2612280;47;20502;-77
2021/12/05 11:14:23;;;;;;;2.67;2.43;;;7.30;99.90;;;;;;2613395;54;20428;-74
2021/12/05 11:17:00;;;;;;;1.90;1.77;;;7.10;99.90;;;;;;2613987;54;20566;-76
2021/12/05 11:19:39;;;;;;;4.20;2.20;;;6.90;99.90;;;;;;2615369;54;20968;-77
2021/12/05 11:22:25;;;;;;;2.80;1.90;;;7.10;99.90;;;;;;2614820;47;20411;-76
2021/12/05 11:25:00;;;;;;;4.47;2.10;;;7.30;99.90;;;;;;2613603;47;20472;-76
2021/12/05 11:27:41;;;;;;;4.67;2.43;;;7.20;99.90;;;;;;2611656;47;21508;-74
2021/12/05 11:30:19;;;;;;;2.10;1.90;;;7.50;99.90;;;;;;2615010;54;20398;-75
2021/12/05 11:32:51;;;;;;;3.03;1.80;;;7.40;99.90;;;;;;2613793;47;20411;-76
2021/12/05 11:35:25;;;;;;;2.17;1.97;;;8.20;99.90;;;;;;2613331;54;20579;-77
2021/12/05 11:38:03;;;;;;;2.00;1.90;;;8.10;99.90;;;;;;2613010;47;20419;-74
2021/12/05 11:40:44;;;;;;;5.60;1.87;;;7.90;99.90;;;;;;2614144;54;20960;-77
2021/12/05 11:43:13;;;;;;;5.47;2.10;;;8.20;99.90;;;;;;2614921;39;20787;-75
2021/12/05 11:45:59;;;;;;;5.13;2.20;;;8.30;99.90;;;;;;2615403;47;20435;-75
2021/12/05 11:48:30;;;;;;;2.57;2.37;;;8.20;99.90;;;;;;2614299;47;20420;-75
2021/12/05 11:50:57;;;;;;;3.00;2.10;;;7.80;99.90;;;;;;2612884;46;20458;-75
2021/12/05 11:53:43;;;;;;;2.07;1.87;;;7.10;99.90;;;;;;2614792;54;20468;-75
2021/12/05 11:56:15;;;;;;;1.87;1.77;;;7.60;99.90;;;;;;2615281;54;20412;-76
2021/12/05 11:58:42;;;;;;;2.50;2.27;;;8.10;99.90;;;;;;2613609;54;20796;-76
2021/12/05 12:01:13;;;;;;;1.90;1.73;;;8.30;99.90;;;;;;2614658;54;20412;-75
2021/12/05 12:03:41;;;;;;;2.20;2.00;;;8.40;99.90;;;;;;2614419;54;20435;-78
2021/12/05 12:06:08;;;;;;;2.13;2.03;;;8.00;99.90;;;;;;2613775;54;20526;-76
2021/12/05 12:08:34;;;;;;;2.17;2.00;;;8.00;99.90;;;;;;2612960;39;20814;-76
2021/12/05 12:11:01;;;;;;;2.30;2.10;;;7.80;99.90;;;;;;2614095;39;20961;-74
2021/12/05 12:13:37;;;;;;;1.50;1.40;;;8.00;99.90;;;;;;2611688;47;20399;-75
2021/12/05 12:16:07;;;;;;;2.00;1.90;;;7.70;99.90;;;;;;2612279;54;20395;-76
2021/12/05 12:18:38;;;;;;;4.80;2.27;;;7.10;99.90;;;;;;2612011;47;20443;-76
2021/12/05 12:21:14;;;;;;;2.00;1.60;;;7.90;99.90;;;;;;2614008;39;20789;-75
2021/12/05 12:23:41;;;;;;;2.07;1.80;;;7.80;99.90;;;;;;2612271;47;20416;-75
2021/12/05 12:26:08;;;;;;;6.03;2.40;;;7.30;99.90;;;;;;2612971;54;20420;-75
2021/12/05 12:28:35;;;;;;;3.23;2.10;;;7.70;99.90;;;;;;2614608;39;20822;-76
2021/12/05 12:31:25;;;;;;;2.67;2.20;;;7.80;99.90;;;;;;2613698;39;20866;-76
2021/12/05 12:33:54;;;;;;;2.10;1.93;;;7.90;99.90;;;;;;2614147;54;20411;-75
2021/12/05 12:36:35;;;;;;;1.90;1.70;;;7.60;99.90;;;;;;2613418;54;20423;-74
2021/12/05 12:39:21;;;;;;;2.23;1.93;;;8.00;99.90;;;;;;2614121;47;20415;-75
2021/12/05 12:42:17;;;;;;;2.37;2.10;;;8.20;99.90;;;;;;2613717;47;20415;-75
2021/12/05 12:44:58;;;;;;;2.43;2.00;;;8.00;99.90;;;;;;2612850;54;20448;-75
2021/12/05 12:48:05;;;;;;;2.13;1.93;;;7.90;99.90;;;;;;2613399;54;20445;-76
2021/12/05 12:50:35;;;;;;;2.13;1.80;;;7.70;99.90;;;;;;2612708;54;21013;-75
2021/12/05 12:53:09;;;;;;;1.80;1.70;;;7.40;99.90;;;;;;2614929;54;20415;-75
2021/12/05 12:55:39;;;;;;;4.67;2.20;;;7.30;99.90;;;;;;2612521;39;20849;-76
2021/12/05 12:58:07;;;;;;;3.90;1.60;;;7.70;99.90;;;;;;2613533;54;20454;-76
2021/12/05 13:00:37;;;;;;;2.50;1.90;;;7.90;99.90;;;;;;2613653;54;20503;-75
2021/12/05 13:03:24;;;;;;;2.07;1.60;;;7.80;99.90;;;;;;2613887;50;20482;-75
2021/12/05 13:11:23;;;;;;;2.13;1.90;;;7.90;99.90;;;;;;2615100;54;20423;-76
2021/12/05 13:14:04;;;;;;;1.80;1.70;;;7.90;99.90;;;;;;2614917;47;20408;-74
2021/12/05 13:16:34;;;;;;;2.77;2.57;;;8.10;99.90;;;;;;2614063;54;20443;-76
2021/12/05 13:19:10;;;;;;;2.30;2.10;;;7.60;99.90;;;;;;2615645;39;21169;-74
2021/12/05 13:21:42;;;;;;;1.93;1.80;;;7.40;99.90;;;;;;2615499;54;20536;-74
2021/12/05 13:24:27;;;;;;;3.67;1.90;;;7.70;99.90;;;;;;2614787;54;20403;-76
2021/12/05 13:27:01;;;;;;;2.10;1.87;;;8.00;99.90;;;;;;2614736;54;20427;-75
2021/12/05 13:29:46;;;;;;;1.97;1.80;;;7.90;99.90;;;;;;2614662;54;20408;-76
2021/12/05 13:32:29;;;;;;;2.50;2.30;;;7.60;99.90;;;;;;2614520;47;20431;-75
2021/12/05 13:35:00;;;;;;;3.30;1.50;;;7.40;99.90;;;;;;2613683;54;20407;-77
2021/12/05 13:37:37;;;;;;;6.60;1.90;;;7.60;99.90;;;;;;2614733;47;20428;-75
2021/12/05 13:40:08;;;;;;;1.60;1.50;;;7.80;99.90;;;;;;2615036;54;20415;-76
2021/12/05 13:42:34;;;;;;;1.87;1.77;;;7.80;99.90;;;;;;2613992;39;20962;-77
2021/12/05 13:45:04;;;;;;;8.00;1.80;;;8.50;99.90;;;;;;2614904;47;20859;-76
2021/12/05 13:47:39;;;;;;;2.90;2.23;;;8.70;99.90;;;;;;2614528;54;20712;-77
2021/12/05 13:50:27;;;;;;;6.77;1.97;;;8.90;99.90;;;;;;2614430;39;20826;-77
2021/12/05 13:53:07;;;;;;;3.00;1.80;;;8.20;99.90;;;;;;2614183;54;20408;-76
2021/12/05 13:55:39;;;;;;;3.10;2.03;;;7.70;99.90;;;;;;2615366;54;20419;-77
2021/12/05 13:58:32;;;;;;;2.13;1.97;;;7.50;99.90;;;;;;2615146;54;20412;-76
2021/12/05 14:01:04;;;;;;;2.10;1.90;;;8.10;99.90;;;;;;2614965;54;20543;-75
2021/12/05 14:03:53;;;;;;;1.90;1.60;;;8.60;99.90;;;;;;2613922;47;20453;-75
2021/12/05 14:06:53;;;;;;;1.60;1.50;;;8.40;99.90;;;;;;2615240;54;20411;-75
2021/12/05 14:09:38;;;;;;;2.70;2.30;;;8.70;99.90;;;;;;2613715;54;20457;-75
2021/12/05 14:12:13;;;;;;;5.13;2.10;;;8.60;99.90;;;;;;2615148;54;20499;-76
2021/12/05 14:14:46;;;;;;;2.70;2.50;;;8.40;99.90;;;;;;2615269;54;20422;-75
2021/12/05 14:17:23;;;;;;;2.27;1.77;;;8.10;99.90;;;;;;2613951;54;20403;-75
2021/12/05 14:19:56;;;;;;;4.27;2.30;;;8.00;99.90;;;;;;2613751;48;21237;-75
2021/12/05 14:22:24;;;;;;;2.17;1.77;;;8.00;99.90;;;;;;2614269;39;20746;-75
2021/12/05 14:24:55;;;;;;;2.00;1.90;;;7.60;99.90;;;;;;2613792;47;20419;-77
2021/12/05 14:27:25;;;;;;;2.53;2.10;;;7.70;99.90;;;;;;2613422;54;20406;-76
2021/12/05 14:29:52;;;;;;;3.07;2.43;;;7.80;99.90;;;;;;2614021;54;20984;-78
2021/12/05 14:32:34;;;;;;;2.27;2.10;;;7.80;99.90;;;;;;2614929;54;21032;-75
2021/12/05 14:35:06;;;;;;;2.57;1.90;;;7.70;99.90;;;;;;2615421;39;20759;-75
2021/12/05 14:37:34;;;;;;;5.13;2.60;;;7.40;99.90;;;;;;2612379;54;20407;-77
2021/12/05 14:40:06;;;;;;;2.20;1.97;;;7.80;99.90;;;;;;2614235;54;20410;-77
2021/12/05 14:42:36;;;;;;;2.37;2.20;;;8.20;99.90;;;;;;2614557;47;20448;-76
2021/12/05 14:45:18;;;;;;;2.80;2.07;;;8.40;99.90;;;;;;2614241;47;20404;-75
2021/12/05 14:47:47;;;;;;;3.30;2.53;;;8.50;99.90;;;;;;2614401;51;20421;-76
2021/12/05 14:50:20;;;;;;;3.80;2.17;;;8.20;99.90;;;;;;2613381;54;20439;-74
2021/12/05 14:52:49;;;;;;;2.73;2.53;;;8.20;99.90;;;;;;2614724;54;20423;-77
2021/12/05 14:55:20;;;;;;;3.20;2.33;;;8.00;99.90;;;;;;2615602;39;20800;-78
2021/12/05 14:58:08;;;;;;;2.20;1.73;;;8.00;99.90;;;;;;2615411;54;20519;-76
2021/12/05 15:00:39;;;;;;;3.00;2.53;;;8.00;99.90;;;;;;2614274;54;20413;-76
2021/12/05 15:03:13;;;;;;;2.43;2.20;;;8.30;99.90;;;;;;2614872;47;20477;-75
2021/12/05 15:05:43;;;;;;;3.33;2.40;;;8.40;99.90;;;;;;2615925;54;20424;-75
2021/12/05 15:08:14;;;;;;;2.57;2.37;;;7.90;99.90;;;;;;2615733;54;20420;-76
2021/12/05 15:10:42;;;;;;;2.50;2.30;;;8.10;99.90;;;;;;2615246;47;20423;-76
2021/12/05 15:13:09;;;;;;;2.30;2.10;;;8.60;99.90;;;;;;2614972;39;20814;-77
2021/12/05 15:15:36;;;;;;;2.83;2.63;;;8.70;99.90;;;;;;2615334;54;21017;-77
2021/12/05 15:18:02;;;;;;;3.93;2.43;;;8.80;99.90;;;;;;2614426;54;20427;-75
2021/12/05 15:20:30;;;;;;;3.73;2.23;;;8.80;99.90;;;;;;2614436;47;20507;-76
2021/12/05 15:23:10;;;;;;;3.90;2.80;;;8.90;99.90;;;;;;2615062;54;20969;-76
2021/12/05 15:25:38;;;;;;;4.80;2.73;;;8.70;99.90;;;;;;2614117;54;20427;-77
2021/12/05 15:28:07;;;;;;;5.07;2.23;;;8.20;99.90;;;;;;2614505;54;20948;-74
2021/12/05 15:30:41;;;;;;;4.60;2.93;;;8.60;99.90;;;;;;2615538;54;20415;-76
2021/12/05 15:33:13;;;;;;;3.60;2.70;;;8.60;99.90;;;;;;2614849;54;21354;-76
2021/12/05 15:35:39;;;;;;;2.90;2.67;;;8.70;99.90;;;;;;2615059;39;20929;-75
2021/12/05 15:38:09;;;;;;;4.23;2.60;;;8.40;99.90;;;;;;2615311;39;20948;-75
2021/12/05 15:40:39;;;;;;;4.67;3.03;;;8.20;99.90;;;;;;2616048;39;20870;-77
2021/12/05 15:43:11;;;;;;;2.87;2.63;;;8.40;99.90;;;;;;2614934;54;20411;-76
2021/12/05 15:45:39;;;;;;;3.37;2.50;;;8.10;99.90;;;;;;2615411;47;20420;-75
2021/12/05 15:48:05;;;;;;;3.77;2.93;;;8.00;99.90;;;;;;2613442;47;20484;-74
2021/12/05 15:50:34;;;;;;;2.60;2.40;;;7.90;99.90;;;;;;2614631;39;20827;-75
2021/12/05 15:53:06;;;;;;;4.83;3.33;;;7.70;99.90;;;;;;2614258;39;20761;-76
2021/12/05 15:55:34;;;;;;;4.30;3.10;;;7.90;99.90;;;;;;2615276;47;20431;-75
2021/12/05 15:58:12;;;;;;;3.87;3.10;;;7.90;99.90;;;;;;2614401;54;20964;-77
2021/12/05 16:00:59;;;;;;;6.40;2.97;;;7.90;99.90;;;;;;2615987;54;20414;-75
2021/12/05 16:03:37;;;;;;;3.50;3.20;;;8.20;99.90;;;;;;2614938;54;20443;-75
2021/12/05 16:06:07;;;;;;;3.80;3.47;;;8.00;99.90;;;;;;2614846;54;20452;-75
2021/12/05 16:08:33;;;;;;;3.20;2.90;;;7.90;99.90;;;;;;2614557;54;20416;-75
2021/12/05 16:11:01;;;;;;;7.70;3.80;;;8.00;99.90;;;;;;2615504;54;20422;-74
2021/12/05 16:13:37;;;;;;;3.93;3.13;;;7.90;99.90;;;;;;2614933;54;21092;-74
2021/12/05 16:16:13;;;;;;;3.27;2.97;;;7.90;99.90;;;;;;2614107;54;21024;-73
2021/12/05 16:18:41;;;;;;;3.33;3.03;;;7.80;99.90;;;;;;2614808;54;20420;-75
2021/12/05 16:21:36;;;;;;;2.67;2.47;;;7.90;99.90;;;;;;2614708;54;20403;-78
2021/12/05 16:24:13;;;;;;;4.43;3.60;;;8.20;99.90;;;;;;2614371;54;20416;-75
2021/12/05 16:26:39;;;;;;;3.90;3.30;;;8.30;99.90;;;;;;2615227;47;20415;-75
2021/12/05 16:29:18;;;;;;;4.03;3.23;;;8.00;99.90;;;;;;2614075;54;20442;-78
2021/12/05 16:31:47;;;;;;;4.47;3.30;;;8.00;99.90;;;;;;2615469;47;20996;-76
2021/12/05 16:34:19;;;;;;;3.87;3.10;;;8.10;99.90;;;;;;2614674;54;20942;-76
2021/12/05 16:36:52;;;;;;;8.10;4.50;;;8.20;99.90;;;;;;2615977;54;20398;-76
2021/12/05 16:39:35;;;;;;;3.53;3.23;;;8.00;99.90;;;;;;2614818;54;21007;-76
2021/12/05 16:42:11;;;;;;;5.20;3.40;;;7.70;99.90;;;;;;2614453;46;20518;-75
2021/12/05 16:44:40;;;;;;;6.53;4.70;;;7.90;99.90;;;;;;2615509;54;20986;-75
2021/12/05 16:47:09;;;;;;;5.00;3.27;;;8.40;99.90;;;;;;2613949;47;20428;-76
2021/12/05 16:49:38;;;;;;;5.43;4.47;;;8.40;99.90;;;;;;2614082;47;20416;-75
2021/12/05 16:52:20;;;;;;;7.93;4.73;;;8.60;99.90;;;;;;2613848;47;20451;-75
2021/12/05 16:54:57;;;;;;;4.70;4.27;;;8.20;99.90;;;;;;2616080;39;20828;-76
2021/12/05 16:57:29;;;;;;;5.90;4.60;;;8.30;99.90;;;;;;2614912;54;20380;-75
2021/12/05 17:00:08;;;;;;;3.30;3.00;;;8.20;99.90;;;;;;2614176;54;20414;-75
2021/12/05 17:02:42;;;;;;;4.43;4.03;;;7.70;99.90;;;;;;2614843;54;20426;-74
2021/12/05 17:05:18;;;;;;;6.37;4.33;;;7.30;99.90;;;;;;2615355;54;20418;-74
2021/12/05 17:08:08;;;;;;;7.27;5.13;;;7.40;99.90;;;;;;2614617;47;20410;-75
2021/12/05 17:10:57;;;;;;;5.17;4.30;;;7.30;99.90;;;;;;2614223;54;20435;-76
2021/12/05 17:13:33;;;;;;;5.47;4.50;;;7.10;99.90;;;;;;2614532;54;20518;-75
2021/12/05 17:16:12;;;;;;;8.20;5.57;;;7.20;99.90;;;;;;2615743;54;20479;-73
2021/12/05 17:19:04;;;;;;;9.50;4.53;;;7.00;99.90;;;;;;2615049;54;20487;-74
2021/12/05 17:21:36;;;;;;;7.20;4.63;;;7.10;99.90;;;;;;2612967;54;20944;-76
2021/12/05 17:24:12;;;;;;;5.70;5.20;;;7.00;99.90;;;;;;2612705;47;20398;-75
2021/12/05 17:26:43;;;;;;;9.43;5.20;;;6.90;99.90;;;;;;2612644;54;20418;-73
2021/12/05 17:29:13;;;;;;;5.10;4.60;;;6.90;99.90;;;;;;2614049;54;20415;-74
2021/12/05 17:31:45;;;;;;;8.40;5.20;;;7.00;99.90;;;;;;2614512;39;20486;-73
2021/12/05 17:34:23;;;;;;;7.23;4.87;;;6.80;99.90;;;;;;2612984;54;20403;-76
2021/12/05 17:37:00;;;;;;;6.10;5.50;;;6.70;99.90;;;;;;2613844;54;20395;-74
2021/12/05 17:39:31;;;;;;;7.20;6.40;;;7.20;99.90;;;;;;2614184;39;20809;-77
2021/12/05 17:42:06;;;;;;;6.73;5.40;;;7.20;99.90;;;;;;2613585;47;20431;-75
2021/12/05 17:44:33;;;;;;;7.00;6.10;;;7.20;99.90;;;;;;2614332;54;20489;-75
2021/12/05 17:47:03;;;;;;;8.20;5.93;;;7.30;99.90;;;;;;2613517;51;20506;-74
2021/12/05 17:49:31;;;;;;;9.83;6.40;;;7.10;99.90;;;;;;2613559;54;20482;-74
2021/12/05 17:52:00;;;;;;;10.47;6.10;;;6.90;99.90;;;;;;2614519;47;20422;-75
2021/12/05 17:54:42;;;;;;;6.40;5.50;;;7.10;99.90;;;;;;2614344;54;21243;-75
2021/12/05 17:57:14;;;;;;;6.87;6.00;;;7.20;99.90;;;;;;2614689;54;20423;-76
2021/12/05 18:05:19;;;;;;;9.13;6.80;;;7.00;99.90;;;;;;2613280;47;20425;-76
2021/12/05 18:07:47;;;;;;;9.33;7.00;;;7.00;99.90;;;;;;2613344;39;20814;-76
2021/12/05 18:10:15;;;;;;;8.87;5.70;;;6.90;99.90;;;;;;2614116;47;20443;-76
2021/12/05 18:12:42;;;;;;;7.20;6.37;;;6.80;99.90;;;;;;2613891;47;20995;-76
2021/12/05 18:15:15;;;;;;;7.03;6.40;;;6.90;99.90;;;;;;2614103;54;21262;-74
2021/12/05 18:17:42;;;;;;;9.97;6.93;;;7.00;99.90;;;;;;2614118;47;20379;-76
2021/12/05 18:20:12;;;;;;;7.83;7.03;;;6.90;99.90;;;;;;2613609;47;20390;-76
2021/12/05 18:22:38;;;;;;;8.10;7.07;;;6.90;99.90;;;;;;2613359;47;20432;-75
2021/12/05 18:25:07;;;;;;;11.83;6.90;;;7.10;99.90;;;;;;2613556;54;20418;-76
2021/12/05 18:27:33;;;;;;;16.73;7.20;;;6.90;99.90;;;;;;2614837;54;20419;-75
2021/12/05 18:29:58;;;;;;;9.00;6.23;;;6.90;99.90;;;;;;2613981;47;20489;-75
2021/12/05 18:32:24;;;;;;;8.70;6.63;;;6.70;99.90;;;;;;2614805;54;20410;-75
2021/12/05 18:34:50;;;;;;;13.80;7.83;;;6.80;99.90;;;;;;2614987;54;20156;-75
2021/12/05 18:37:16;;;;;;;9.10;7.60;;;7.10;99.90;;;;;;2614575;54;20154;-75
2021/12/05 18:39:48;;;;;;;8.97;8.07;;;7.30;99.90;;;;;;2614512;54;20418;-77
2021/12/05 18:42:16;;;;;;;10.10;7.27;;;7.30;99.90;;;;;;2613394;47;20182;-75
2021/12/05 18:44:49;;;;;;;14.17;8.20;;;7.30;99.90;;;;;;2614479;47;20452;-78
2021/12/05 18:47:15;;;;;;;11.13;7.53;;;7.00;99.90;;;;;;2615146;54;20433;-76
2021/12/05 18:49:44;;;;;;;9.50;6.87;;;6.90;99.90;;;;;;2613698;46;20481;-74
2021/12/05 18:52:10;;;;;;;8.83;6.73;;;6.80;99.90;;;;;;2613267;54;20431;-76
2021/12/05 18:54:42;;;;;;;11.00;7.60;;;6.90;99.90;;;;;;2613705;47;21060;-76
2021/12/05 18:57:10;;;;;;;8.47;7.40;;;6.90;99.90;;;;;;2614264;47;20478;-74